Time;durP1;ratioP1;P1;durP2;ratioP2;P2;SDS_P1;SDS_P2;PMS_P1;PMS_P2;Temp;Humidity;BMP_temperature;BMP_pressure;BME280_temperature;BME280_humidity;BME280_pressure;Samples;Min_cycle;Max_cycle;Signal;HPM_P1;HPM_P2
2022/10/07 05:05:03;;;;;;;;;18.50;14.25;;;;;13.97;47.86;102086.41;6009960;23;46211;-58
2022/10/07 05:07:28;;;;;;;;;12.75;12.50;;;;;13.96;47.41;102076.72;4959466;28;45174;-58
2022/10/07 05:09:53;;;;;;;;;15.75;12.50;;;;;13.97;47.27;102077.59;4960953;28;45448;-58
2022/10/07 05:12:19;;;;;;;;;9.25;9.00;;;;;13.87;47.59;102063.56;4960524;28;45563;-56
2022/10/07 05:14:45;;;;;;;;;16.25;11.75;;;;;13.96;47.55;102076.72;4961023;28;45416;-56
2022/10/07 05:17:12;;;;;;;;;15.00;14.00;;;;;13.95;47.67;102077.63;4960541;28;45251;-54
2022/10/07 05:19:38;;;;;;;;;15.00;14.00;;;;;13.94;47.67;102075.84;4960607;28;45368;-57
2022/10/07 05:22:03;;;;;;;;;16.50;12.50;;;;;13.93;47.77;102078.50;4960511;28;45329;-53
2022/10/07 05:24:29;;;;;;;;;15.00;13.25;;;;;13.93;47.37;102073.22;4960857;28;45224;-58
2022/10/07 05:26:54;;;;;;;;;13.00;13.00;;;;;13.90;47.49;102079.41;4959152;28;45401;-58
2022/10/07 05:29:20;;;;;;;;;17.75;16.25;;;;;13.91;47.81;102075.88;4956680;28;45390;-58
2022/10/07 05:31:47;;;;;;;;;18.50;15.00;;;;;13.91;47.62;102078.53;4958808;28;45476;-56
2022/10/07 05:34:14;;;;;;;;;16.25;14.25;;;;;13.90;47.37;102084.69;4959654;28;47074;-56
2022/10/07 05:36:40;;;;;;;;;11.75;10.75;;;;;13.88;47.37;102075.91;4947163;28;45448;-55
2022/10/07 05:39:06;;;;;;;;;16.50;15.00;;;;;13.89;48.01;102071.50;4960245;28;45330;-55
2022/10/07 05:41:31;;;;;;;;;15.50;14.75;;;;;13.87;47.54;102071.50;4958894;28;45560;-54
2022/10/07 05:43:58;;;;;;;;;16.50;13.00;;;;;13.86;47.38;102064.47;4952530;28;45454;-57
2022/10/07 05:46:24;;;;;;;;;15.50;13.25;;;;;13.85;48.03;102067.09;4960329;28;45386;-56
2022/10/07 05:48:51;;;;;;;;;14.50;12.75;;;;;13.82;47.58;102070.66;4960158;28;45457;-54
2022/10/07 05:51:18;;;;;;;;;14.50;13.50;;;;;13.82;47.96;102075.94;4959805;28;45315;-55
2022/10/07 05:53:45;;;;;;;;;13.50;13.25;;;;;13.79;48.00;102076.84;4960459;28;45263;-56
2022/10/07 05:56:14;;;;;;;;;17.50;15.75;;;;;13.76;48.05;102074.22;4963392;28;45269;-57
2022/10/07 05:58:39;;;;;;;;;14.25;12.00;;;;;13.78;48.02;102067.16;4963554;28;45263;-57
2022/10/07 06:01:07;;;;;;;;;15.00;13.75;;;;;13.75;48.04;102072.47;4971011;28;45183;-56
2022/10/07 06:03:32;;;;;;;;;19.00;15.25;;;;;13.75;47.94;102071.59;4963312;28;45236;-56
2022/10/07 06:05:59;;;;;;;;;15.25;15.25;;;;;13.73;48.13;102065.44;4962242;28;45700;-57
2022/10/07 06:08:25;;;;;;;;;18.75;17.50;;;;;13.75;47.95;102064.53;4961518;28;45490;-56
2022/10/07 06:13:35;;;;;;;;;19.25;17.00;;;;;13.71;47.93;102057.53;4962922;28;45331;-60
2022/10/07 06:16:05;;;;;;;;;19.00;17.75;;;;;13.72;48.09;102069.84;4961384;28;45342;-55
2022/10/07 06:18:31;;;;;;;;;22.25;17.00;;;;;13.69;47.90;102058.44;4963227;28;45161;-54
2022/10/07 06:20:59;;;;;;;;;17.50;17.50;;;;;13.67;48.27;102076.03;4963190;28;45590;-55
2022/10/07 06:23:25;;;;;;;;;17.75;17.00;;;;;13.65;48.19;102070.78;4962813;28;45597;-56
2022/10/07 06:26:10;;;;;;;;;23.25;18.75;;;;;13.63;48.04;102070.78;4961854;28;45390;-55
2022/10/07 06:28:40;;;;;;;;;20.25;18.25;;;;;13.62;48.12;102070.78;4963019;28;45346;-54
2022/10/07 06:31:24;;;;;;;;;17.00;14.50;;;;;13.60;48.34;102068.16;4978028;28;45545;-52
2022/10/07 06:33:49;;;;;;;;;16.25;13.50;;;;;13.58;48.11;102066.41;4950543;28;46880;-52
2022/10/07 06:36:16;;;;;;;;;16.75;16.00;;;;;13.54;48.13;102062.03;4963607;28;46049;-53
2022/10/07 06:38:46;;;;;;;;;18.00;12.50;;;;;13.54;48.49;102060.25;4963062;28;45251;-53
2022/10/07 06:41:11;;;;;;;;;15.50;12.25;;;;;13.51;48.48;102068.22;4967693;28;45439;-53
2022/10/07 06:43:37;;;;;;;;;16.25;14.00;;;;;13.50;48.09;102071.72;4960404;28;45412;-54
2022/10/07 06:46:04;;;;;;;;;12.50;12.50;;;;;13.40;48.17;102057.69;4956547;28;45315;-53
2022/10/07 06:48:32;;;;;;;;;14.25;12.75;;;;;13.47;48.47;102072.63;4951716;28;45220;-55
2022/10/07 06:50:58;;;;;;;;;16.50;14.50;;;;;13.48;48.22;102065.56;4943420;28;45184;-55
2022/10/07 06:53:25;;;;;;;;;17.25;15.00;;;;;13.45;48.79;102071.75;4943508;28;46975;-54
2022/10/07 06:55:53;;;;;;;;;16.50;13.25;;;;;13.45;48.70;102066.47;4941984;28;45367;-53
2022/10/07 06:58:19;;;;;;;;;9.00;9.00;;;;;13.44;48.34;102069.97;4943397;28;45260;-54
2022/10/07 07:00:49;;;;;;;;;11.75;11.00;;;;;13.44;48.79;102069.13;4958601;28;45429;-55
2022/10/07 07:03:18;;;;;;;;;18.75;14.75;;;;;13.45;48.93;102070.88;4962662;28;46405;-55
2022/10/07 07:05:44;;;;;;;;;19.25;15.75;;;;;13.44;48.67;102074.41;4959979;28;45957;-55
2022/10/07 07:08:10;;;;;;;;;17.75;14.25;;;;;13.44;48.43;102071.75;4962709;28;45425;-55
2022/10/07 07:10:40;;;;;;;;;15.50;13.00;;;;;13.44;48.87;102069.13;4962494;28;45401;-54
2022/10/07 07:13:06;;;;;;;;;13.75;11.00;;;;;13.44;48.43;102074.41;4962480;28;46543;-55
2022/10/07 07:15:32;;;;;;;;;15.50;12.50;;;;;13.45;48.56;102076.16;4962179;28;45270;-55
2022/10/07 07:17:58;;;;;;;;;15.00;13.00;;;;;13.44;48.87;102071.75;4961400;28;45311;-53
2022/10/07 07:20:23;;;;;;;;;15.00;14.00;;;;;13.42;48.64;102069.13;4960666;28;45517;-54
2022/10/07 07:22:51;;;;;;;;;15.50;15.50;;;;;13.46;48.67;102064.72;4962319;28;45842;-55
2022/10/07 07:25:17;;;;;;;;;16.00;14.00;;;;;13.45;48.91;102057.69;4962200;28;45235;-53
2022/10/07 07:27:42;;;;;;;;;15.50;13.00;;;;;13.48;48.59;102060.28;4962315;28;45242;-53
2022/10/07 07:30:08;;;;;;;;;28.75;24.00;;;;;13.48;48.69;102061.19;4961015;28;45540;-53
2022/10/07 07:32:33;;;;;;;;;16.25;11.00;;;;;13.50;48.55;102061.16;4962178;28;46113;-55
2022/10/07 07:35:00;;;;;;;;;17.75;13.00;;;;;13.52;49.00;102066.44;4961784;28;45501;-52
2022/10/07 07:37:28;;;;;;;;;21.50;16.00;;;;;13.52;49.06;102071.72;4962371;28;45282;-54
2022/10/07 07:39:53;;;;;;;;;15.75;14.00;;;;;13.54;48.88;102064.69;4976879;28;45459;-53
2022/10/07 07:42:20;;;;;;;;;18.25;16.75;;;;;13.55;49.09;102067.28;4962055;28;47405;-53
2022/10/07 07:44:46;;;;;;;;;23.25;18.75;;;;;13.58;49.22;102061.97;4961893;28;45380;-54
2022/10/07 07:47:11;;;;;;;;;24.50;20.00;;;;;13.61;49.32;102061.97;4962040;28;45418;-53
2022/10/07 07:49:37;;;;;;;;;21.25;16.75;;;;;13.62;49.24;102061.09;4961836;28;45263;-52
2022/10/07 07:52:03;;;;;;;;;14.75;12.25;;;;;13.63;48.97;102054.94;4962115;28;46576;-54
2022/10/07 07:54:29;;;;;;;;;19.00;16.00;;;;;13.67;48.76;102055.78;4961911;28;45223;-53
2022/10/07 07:56:56;;;;;;;;;17.00;15.00;;;;;13.71;49.31;102051.34;4961985;28;45274;-55
2022/10/07 07:59:22;;;;;;;;;19.00;16.75;;;;;13.76;49.24;102052.19;4961625;28;45331;-54
2022/10/07 08:01:47;;;;;;;;;18.25;16.75;;;;;13.78;49.34;102047.78;4972150;28;45694;-54
2022/10/07 08:04:14;;;;;;;;;20.50;17.50;;;;;13.80;49.22;102041.59;4961404;28;45337;-54
2022/10/07 08:06:40;;;;;;;;;19.00;15.00;;;;;13.87;49.02;102050.34;4961808;28;45578;-54
2022/10/07 08:09:06;;;;;;;;;17.00;16.25;;;;;13.92;49.08;102045.03;4961686;28;45453;-54
2022/10/07 08:11:34;;;;;;;;;17.75;14.00;;;;;13.97;49.13;102045.88;4961783;28;45436;-53
2022/10/07 08:14:02;;;;;;;;;19.00;15.25;;;;;14.02;48.98;102045.84;4961639;28;45318;-54
2022/10/07 08:16:28;;;;;;;;;21.50;17.50;;;;;14.07;49.02;102051.97;4961671;28;45267;-53
2022/10/07 08:18:55;;;;;;;;;24.00;22.50;;;;;14.12;49.59;102047.53;4961074;28;45382;-54
2022/10/07 08:21:27;;;;;;;;;20.00;19.25;;;;;14.19;49.61;102051.88;4961469;28;46490;-53
2022/10/07 08:23:57;;;;;;;;;21.50;19.75;;;;;14.25;49.53;102051.84;4961350;28;45262;-54
2022/10/07 08:26:24;;;;;;;;;22.50;19.25;;;;;14.31;49.17;102042.97;4960320;28;45372;-53
2022/10/07 08:28:49;;;;;;;;;17.25;16.50;;;;;14.39;49.54;102046.41;4961245;28;45295;-54
2022/10/07 08:31:17;;;;;;;;;16.75;15.75;;;;;14.46;49.62;102048.13;4961338;28;45366;-52
2022/10/07 08:33:45;;;;;;;;;15.75;11.75;;;;;14.53;49.50;102033.06;4961112;28;45380;-51
2022/10/07 08:36:22;;;;;;;;;13.00;12.75;;;;;14.58;49.39;102033.88;4961178;28;45247;-55
2022/10/07 08:38:48;;;;;;;;;16.25;12.75;;;;;14.67;49.61;102025.00;4961042;28;45310;-55
2022/10/07 08:41:41;;;;;;;;;11.50;11.50;;;;;14.75;49.94;102032.84;4961240;28;45497;-54
2022/10/07 08:44:12;;;;;;;;;15.50;14.00;;;;;14.83;49.45;102030.13;4961163;28;45235;-55
2022/10/07 08:46:48;;;;;;;;;16.25;14.00;;;;;14.90;49.83;102027.38;4961260;28;45485;-55
2022/10/07 08:49:18;;;;;;;;;13.50;12.25;;;;;14.99;49.30;102026.41;4960997;28;45389;-54
2022/10/07 08:51:49;;;;;;;;;21.00;16.50;;;;;15.07;49.38;102026.31;4959544;28;47441;-54
2022/10/07 08:54:18;;;;;;;;;16.25;9.50;;;;;15.16;49.48;102022.69;4961074;28;45323;-53
2022/10/07 08:56:47;;;;;;;;;13.75;13.00;;;;;15.24;49.14;102021.69;4961244;28;45463;-55
2022/10/07 08:59:20;;;;;;;;;10.75;10.25;;;;;15.35;49.60;102029.47;4960825;28;45393;-54
2022/10/07 09:01:57;;;;;;;;;12.25;11.00;;;;;15.45;49.19;102022.28;4970812;28;45502;-55
2022/10/07 09:04:58;;;;;;;;;12.00;9.75;;;;;15.55;49.61;102017.72;4960668;28;45381;-55
2022/10/07 09:07:31;;;;;;;;;15.25;10.50;;;;;15.67;49.30;102011.34;4960414;28;45223;-54
2022/10/07 09:10:10;;;;;;;;;15.75;12.50;;;;;15.74;49.50;102005.06;4960879;28;45247;-54
2022/10/07 09:12:48;;;;;;;;;8.75;7.50;;;;;15.84;49.45;102000.53;4960606;28;46133;-54
2022/10/07 09:15:37;;;;;;;;;12.25;9.00;;;;;15.95;49.42;101992.41;4960784;28;45513;-53
2022/10/07 09:18:11;;;;;;;;;11.00;7.75;;;;;16.06;49.44;101988.69;4960997;28;45235;-55
2022/10/07 09:20:42;;;;;;;;;8.75;7.75;;;;;16.09;49.13;101963.88;4960392;28;45260;-55
2022/10/07 09:23:14;;;;;;;;;8.25;7.00;;;;;16.28;48.99;101979.47;4960703;28;46258;-53
2022/10/07 09:25:40;;;;;;;;;8.75;6.00;;;;;16.40;49.22;101969.50;4959032;28;45424;-54
2022/10/07 09:28:14;;;;;;;;;10.75;7.50;;;;;16.52;48.98;101973.69;4959473;28;45355;-55
2022/10/07 09:30:41;;;;;;;;;9.25;8.25;;;;;16.63;49.04;101959.31;4963612;28;45621;-54
2022/10/07 09:33:19;;;;;;;;;6.50;5.50;;;;;16.80;49.01;101958.97;4964165;28;45468;-56
2022/10/07 09:35:54;;;;;;;;;8.25;6.50;;;;;16.93;48.92;101959.63;4963909;28;45413;-56
2022/10/07 09:38:41;;;;;;;;;9.00;8.00;;;;;17.08;49.21;101961.06;4964163;28;45203;-55
2022/10/07 09:41:34;;;;;;;;;8.75;8.50;;;;;17.21;48.91;101957.25;4963976;28;45184;-56
2022/10/07 09:44:14;;;;;;;;;9.25;7.25;;;;;17.36;49.07;101958.69;4963830;28;46082;-56
2022/10/07 09:46:51;;;;;;;;;8.75;6.50;;;;;17.49;48.86;101956.59;4963889;28;45317;-56
2022/10/07 09:49:28;;;;;;;;;8.50;7.25;;;;;17.62;48.69;101946.53;4963695;28;45450;-55
2022/10/07 09:52:22;;;;;;;;;9.00;7.00;;;;;17.78;48.74;101947.03;4963881;28;45435;-56
2022/10/07 09:54:50;;;;;;;;;7.50;7.00;;;;;17.91;48.44;101934.28;4959336;28;46320;-53
2022/10/07 09:57:24;;;;;;;;;9.00;7.50;;;;;18.05;48.64;101933.97;4963629;28;45493;-55
2022/10/07 09:59:50;;;;;;;;;9.50;7.50;;;;;18.16;48.39;101927.44;4965150;28;45315;-55
2022/10/07 10:02:24;;;;;;;;;8.75;7.25;;;;;18.29;48.43;101927.97;4987193;28;45670;-55
2022/10/07 10:04:52;;;;;;;;;9.00;7.50;;;;;18.43;48.75;101932.06;4961780;28;48237;-56
2022/10/07 10:07:19;;;;;;;;;9.50;8.00;;;;;18.56;47.97;101935.22;4961983;28;45431;-55
2022/10/07 10:09:53;;;;;;;;;8.00;6.00;;;;;18.66;48.23;101923.38;4962363;28;45449;-54
2022/10/07 10:12:20;;;;;;;;;4.50;4.50;;;;;18.79;48.17;101924.78;4963372;28;45407;-55
2022/10/07 10:14:53;;;;;;;;;4.25;4.00;;;;;18.91;48.13;101912.03;4963423;28;45358;-54
2022/10/07 10:17:23;;;;;;;;;8.25;6.75;;;;;19.02;48.17;101907.25;4963217;28;45254;-53
2022/10/07 10:19:49;;;;;;;;;9.75;6.75;;;;;19.12;47.82;101908.69;4963286;28;45391;-52
2022/10/07 10:22:28;;;;;;;;;10.50;6.50;;;;;19.27;47.97;101893.13;4963360;28;45282;-54
2022/10/07 10:27:59;;;;;;;;;7.00;7.00;;;;;19.57;47.51;101893.94;4963117;28;45196;-52
2022/10/07 10:30:26;;;;;;;;;8.75;8.00;;;;;19.71;47.19;101898.78;4963279;28;45353;-55
2022/10/07 10:33:18;;;;;;;;;9.50;6.00;;;;;19.86;47.58;101891.19;4963316;28;45271;-52
2022/10/07 10:36:13;;;;;;;;;8.00;5.75;;;;;19.97;47.50;101889.91;4962881;28;46412;-53
2022/10/07 10:38:59;;;;;;;;;9.00;4.50;;;;;20.13;46.91;101876.88;4960757;28;45230;-54
2022/10/07 10:41:37;;;;;;;;;7.75;4.25;;;;;20.28;46.97;101874.59;4962005;28;45336;-54
2022/10/07 10:44:24;;;;;;;;;2.75;2.25;;;;;20.45;47.15;101873.94;4963073;28;45321;-54
2022/10/07 10:47:02;;;;;;;;;5.00;3.00;;;;;20.58;47.06;101872.56;4961585;28;45981;-53
2022/10/07 10:49:36;;;;;;;;;7.50;3.75;;;;;20.74;46.48;101866.63;4962718;28;45506;-55
2022/10/07 10:52:04;;;;;;;;;4.00;3.75;;;;;20.89;46.32;101867.84;4963194;28;45295;-55
2022/10/07 10:54:45;;;;;;;;;4.75;3.50;;;;;21.04;46.22;101864.56;4962699;28;45509;-53
2022/10/07 10:57:36;;;;;;;;;2.50;2.50;;;;;21.22;46.31;101857.59;4962786;28;45308;-53
2022/10/07 11:00:07;;;;;;;;;4.50;3.00;;;;;21.39;45.90;101859.53;4965854;28;45468;-54
2022/10/07 11:02:36;;;;;;;;;7.50;4.00;;;;;21.55;46.18;101858.91;4968589;28;45289;-54
2022/10/07 11:05:10;;;;;;;;;3.50;3.50;;;;;21.70;46.06;101850.25;4962482;28;45324;-54
2022/10/07 11:07:42;;;;;;;;;3.00;2.00;;;;;21.84;45.82;101838.94;4962505;28;45524;-53
2022/10/07 11:10:18;;;;;;;;;4.00;3.00;;;;;22.00;45.50;101848.94;4962729;28;45254;-53
2022/10/07 11:12:48;;;;;;;;;4.00;2.00;;;;;22.14;45.30;101846.53;4962396;28;45386;-54
2022/10/07 11:15:22;;;;;;;;;6.00;3.25;;;;;22.31;44.62;101845.72;4962505;28;45397;-53
2022/10/07 11:17:50;;;;;;;;;3.00;3.00;;;;;22.48;45.32;101844.16;4962362;28;46437;-54
2022/10/07 11:20:24;;;;;;;;;1.75;1.00;;;;;22.65;44.67;101838.81;4962129;28;45195;-56
2022/10/07 11:23:24;;;;;;;;;6.75;5.75;;;;;22.86;44.99;101838.75;4962794;28;45445;-54
2022/10/07 11:25:56;;;;;;;;;5.00;2.25;;;;;23.07;44.70;101822.53;4945615;28;45404;-54
2022/10/07 11:28:26;;;;;;;;;3.75;3.00;;;;;23.30;44.73;101822.28;4962021;28;45337;-56
2022/10/07 11:31:11;;;;;;;;;5.75;3.00;;;;;23.56;44.46;101811.16;4960870;28;45393;-54
2022/10/07 11:33:59;;;;;;;;;2.75;1.00;;;;;23.82;44.64;101805.28;4962036;28;45380;-55
2022/10/07 11:36:37;;;;;;;;;5.50;2.00;;;;;24.08;44.46;101803.03;4961918;28;45240;-56
2022/10/07 11:39:03;;;;;;;;;1.50;1.00;;;;;24.34;44.36;101801.59;4949491;28;46095;-56
2022/10/07 11:41:40;;;;;;;;;2.25;2.00;;;;;24.62;44.30;101801.88;4961939;28;45230;-56
2022/10/07 11:44:18;;;;;;;;;3.25;3.25;;;;;24.93;44.71;101792.03;4962267;28;45271;-57
2022/10/07 11:46:46;;;;;;;;;4.75;4.00;;;;;25.19;44.43;101790.50;4961852;28;45433;-54
2022/10/07 11:49:24;;;;;;;;;4.25;3.50;;;;;25.46;44.45;101788.03;4961800;28;46205;-57
2022/10/07 11:51:50;;;;;;;;;1.00;1.00;;;;;25.75;44.18;101782.69;4961331;28;45310;-57
2022/10/07 11:54:18;;;;;;;;;32.25;25.25;;;;;26.01;44.06;101782.00;4962065;28;45456;-57
2022/10/07 11:56:48;;;;;;;;;3.75;1.75;;;;;26.26;43.71;101770.53;4960537;28;45271;-57
2022/10/07 11:59:40;;;;;;;;;0.50;0.00;;;;;26.49;43.78;101782.53;4961501;28;47062;-57
2022/10/07 12:02:27;;;;;;;;;3.50;1.75;;;;;26.71;43.21;101771.19;4952707;28;45297;-58
2022/10/07 12:04:54;;;;;;;;;1.25;0.00;;;;;26.92;43.28;101770.75;4961844;28;45538;-58
2022/10/07 12:07:34;;;;;;;;;2.75;1.50;;;;;27.12;42.51;101763.13;4961442;28;45417;-58
2022/10/07 12:10:02;;;;;;;;;3.00;1.25;;;;;27.31;42.67;101757.31;4961588;28;46133;-58
2022/10/07 12:12:43;;;;;;;;;2.50;2.00;;;;;27.52;42.54;101753.19;4961520;28;45385;-58
2022/10/07 12:15:41;;;;;;;;;2.75;1.00;;;;;27.75;42.83;101745.28;4959551;28;45254;-58
2022/10/07 12:18:06;;;;;;;;;1.50;1.50;;;;;27.98;41.87;101740.91;4957913;28;45405;-58
2022/10/07 12:20:49;;;;;;;;;2.00;2.00;;;;;28.17;42.01;101737.75;4956149;28;45665;-58
2022/10/07 12:25:46;;;;;;;;;1.00;1.00;;;;;28.61;42.45;101729.16;4959453;28;45306;-58
2022/10/07 12:28:22;;;;;;;;;3.25;2.00;;;;;28.82;41.89;101730.25;4957735;28;45512;-58
2022/10/07 12:30:50;;;;;;;;;2.75;1.50;;;;;29.00;41.88;101730.69;4956715;28;45294;-59
2022/10/07 12:33:33;;;;;;;;;2.25;1.25;;;;;29.19;41.85;101719.31;4959410;28;45438;-62
2022/10/07 12:36:19;;;;;;;;;3.50;1.00;;;;;29.35;41.16;101721.69;4954656;28;45437;-59
2022/10/07 12:39:08;;;;;;;;;4.00;2.00;;;;;29.53;41.33;101707.66;4964489;28;45307;-58
2022/10/07 12:41:34;;;;;;;;;5.25;3.25;;;;;29.71;41.29;101718.91;4958697;28;46146;-58
2022/10/07 12:44:15;;;;;;;;;1.00;1.00;;;;;29.88;41.26;101705.81;4956989;28;45370;-59
2022/10/07 12:46:49;;;;;;;;;2.25;1.00;;;;;30.05;40.80;101699.91;4957797;28;45253;-59
2022/10/07 12:49:36;;;;;;;;;1.00;1.00;;;;;30.27;41.00;101700.84;4957994;28;45397;-57
2022/10/07 12:52:30;;;;;;;;;2.75;2.75;;;;;30.47;41.42;101691.03;4956972;28;46508;-56
2022/10/07 12:55:00;;;;;;;;;1.75;1.75;;;;;30.66;41.25;101684.09;4942452;28;45501;-58
2022/10/07 12:57:33;;;;;;;;;5.75;2.25;;;;;30.84;40.26;101681.66;4959906;28;45405;-58
2022/10/07 12:59:58;;;;;;;;;1.00;1.00;;;;;30.97;40.30;101666.03;4957981;28;45495;-59
2022/10/07 13:03:04;;;;;;;;;2.00;2.00;;;;;31.06;39.66;101670.69;4959204;28;45502;-59
2022/10/07 13:05:47;;;;;;;;;1.00;1.00;;;;;31.11;39.71;101667.56;4958557;28;45540;-59
2022/10/07 13:08:49;;;;;;;;;2.00;2.00;;;;;31.12;39.28;101662.00;4955754;28;45279;-59
2022/10/07 13:11:49;;;;;;;;;1.00;1.00;;;;;31.15;38.94;101652.72;4959308;28;45369;-56
2022/10/07 13:14:20;;;;;;;;;1.00;1.00;;;;;31.20;39.03;101652.34;4971433;28;46693;-59
2022/10/07 13:16:58;;;;;;;;;3.75;2.50;;;;;31.25;39.09;101634.63;4959110;28;45322;-58
2022/10/07 13:19:46;;;;;;;;;2.25;1.75;;;;;31.33;38.48;101644.81;4957816;28;45441;-58
2022/10/07 13:22:15;;;;;;;;;1.50;0.75;;;;;31.38;38.68;101637.09;4957984;28;45426;-58
2022/10/07 13:24:49;;;;;;;;;1.00;1.00;;;;;31.48;38.34;101639.88;4955429;28;45487;-58
2022/10/07 13:27:26;;;;;;;;;2.00;1.00;;;;;31.54;37.18;101641.19;4957111;28;45267;-59
2022/10/07 13:29:52;;;;;;;;;1.50;1.50;;;;;31.56;37.24;101628.31;4959235;28;45383;-58
2022/10/07 13:32:29;;;;;;;;;1.00;1.00;;;;;31.57;37.62;101632.75;4941530;28;45441;-59
2022/10/07 13:35:10;;;;;;;;;1.25;1.25;;;;;31.53;37.24;101620.47;4942551;28;45351;-58
2022/10/07 13:37:37;;;;;;;;;2.75;2.00;;;;;31.48;36.79;101629.00;4959850;28;45402;-56
2022/10/07 13:40:23;;;;;;;;;4.75;2.75;;;;;31.42;37.25;101626.84;4932758;28;45257;-58
2022/10/07 13:42:54;;;;;;;;;1.00;1.00;;;;;31.35;36.71;101620.25;4950793;28;45468;-58
2022/10/07 13:45:20;;;;;;;;;1.00;1.00;;;;;31.27;36.56;101623.63;4948182;28;45511;-58
2022/10/07 13:47:46;;;;;;;;;0.75;0.50;;;;;31.18;36.07;101619.03;4960525;28;45263;-58
2022/10/07 13:50:18;;;;;;;;;1.75;1.50;;;;;31.08;36.21;101618.97;4963493;28;45351;-58
2022/10/07 13:52:46;;;;;;;;;2.75;2.00;;;;;31.02;36.07;101614.06;4940866;28;45336;-58
2022/10/07 13:55:24;;;;;;;;;1.25;0.75;;;;;30.97;35.95;101606.34;4939358;28;46250;-58
2022/10/07 13:57:50;;;;;;;;;2.25;1.75;;;;;30.93;36.10;101615.72;4940682;28;45377;-58
2022/10/07 14:00:16;;;;;;;;;1.00;0.25;;;;;30.89;36.33;101608.84;4949468;28;45337;-58
2022/10/07 14:02:41;;;;;;;;;2.25;2.25;;;;;30.83;35.39;101603.97;4965731;28;45478;-58
2022/10/07 14:05:26;;;;;;;;;3.00;2.00;;;;;30.75;36.14;101591.06;4959657;28;45962;-58
2022/10/07 14:07:54;;;;;;;;;2.50;1.75;;;;;30.68;35.94;101592.59;4960067;28;45353;-56
2022/10/07 14:10:22;;;;;;;;;0.50;0.00;;;;;30.61;35.73;101595.00;4960283;28;45326;-56
2022/10/07 14:12:53;;;;;;;;;2.00;0.50;;;;;30.52;35.63;101582.25;4959874;28;45316;-56
2022/10/07 14:15:25;;;;;;;;;1.25;1.00;;;;;30.46;35.13;101587.13;4961238;28;45424;-56
2022/10/07 14:17:55;;;;;;;;;1.25;1.25;;;;;30.38;35.51;101573.41;4963132;28;45411;-56
2022/10/07 14:20:28;;;;;;;;;1.75;1.50;;;;;30.32;35.24;101582.06;4963210;28;45188;-56
2022/10/07 14:23:20;;;;;;;;;2.50;2.00;;;;;30.21;35.13;101572.13;4963259;28;45317;-56
2022/10/07 14:25:46;;;;;;;;;2.00;2.00;;;;;30.08;35.07;101566.03;4962954;28;46487;-57
2022/10/07 14:28:23;;;;;;;;;1.00;1.00;;;;;29.92;35.05;101559.19;4963128;28;45381;-56
2022/10/07 14:37:18;;;;;;;;;2.00;1.25;;;;;29.48;34.57;101563.72;4962787;28;45751;-56
2022/10/07 14:39:48;;;;;;;;;1.50;1.50;;;;;29.34;34.42;101556.72;4962976;28;45254;-56
2022/10/07 14:42:21;;;;;;;;;3.00;1.00;;;;;29.26;34.10;101559.13;4963166;28;45351;-57
2022/10/07 14:44:47;;;;;;;;;2.00;2.00;;;;;29.14;34.30;101556.44;4962994;28;45198;-57
2022/10/07 14:47:19;;;;;;;;;1.25;1.00;;;;;29.04;34.46;101555.47;4961418;28;46701;-57
2022/10/07 14:49:46;;;;;;;;;1.00;0.75;;;;;28.94;34.10;101554.50;4962596;28;45227;-57
2022/10/07 14:52:39;;;;;;;;;1.00;1.00;;;;;28.82;33.89;101548.22;4962852;28;45481;-57
2022/10/07 14:55:10;;;;;;;;;1.75;0.75;;;;;28.68;34.34;101541.22;4962833;28;45338;-57
2022/10/07 14:57:35;;;;;;;;;1.00;1.00;;;;;28.56;33.96;101539.44;4962635;28;46408;-57
2022/10/07 15:00:03;;;;;;;;;1.25;1.25;;;;;28.45;33.82;101542.97;4963323;28;45360;-57
2022/10/07 15:02:29;;;;;;;;;1.50;1.50;;;;;28.29;34.11;101536.03;4962952;28;45359;-56
2022/10/07 15:04:54;;;;;;;;;2.50;2.00;;;;;28.13;34.13;101520.16;4962231;28;45337;-57
2022/10/07 15:07:20;;;;;;;;;1.00;1.00;;;;;27.99;33.64;101526.56;4962326;28;45373;-59
2022/10/07 15:09:45;;;;;;;;;1.00;1.00;;;;;27.84;33.92;101527.75;4962561;28;45252;-57
2022/10/07 15:12:13;;;;;;;;;2.00;1.00;;;;;27.70;34.16;101526.09;4962797;28;45240;-56
2022/10/07 15:14:39;;;;;;;;;1.25;1.00;;;;;27.55;33.72;101528.09;4962475;28;45470;-57
2022/10/07 15:17:05;;;;;;;;;3.00;1.00;;;;;27.43;33.67;101528.97;4961278;28;45350;-57
2022/10/07 15:19:31;;;;;;;;;1.00;1.00;;;;;27.31;34.19;101522.59;4962100;28;45357;-58
2022/10/07 15:21:56;;;;;;;;;1.00;1.00;;;;;27.18;33.56;101515.44;4962622;28;45342;-58
2022/10/07 15:24:22;;;;;;;;;2.25;1.50;;;;;27.06;34.00;101510.91;4961120;28;45517;-57
2022/10/07 15:26:47;;;;;;;;;0.75;0.75;;;;;26.95;33.99;101508.13;4961549;28;45331;-55
2022/10/07 15:29:14;;;;;;;;;2.25;1.00;;;;;26.82;33.99;101503.59;4962210;28;45398;-58
2022/10/07 15:31:41;;;;;;;;;3.25;3.25;;;;;26.67;33.88;101515.47;4962737;28;45306;-58
2022/10/07 15:34:07;;;;;;;;;1.00;1.00;;;;;26.51;34.13;101507.56;4961923;28;45304;-57
2022/10/07 15:36:32;;;;;;;;;3.00;1.25;;;;;26.33;33.54;101502.50;4960538;28;45357;-55
2022/10/07 15:39:01;;;;;;;;;0.75;0.75;;;;;26.19;33.45;101505.25;4962303;28;45191;-58
2022/10/07 15:41:27;;;;;;;;;2.00;1.00;;;;;26.05;34.29;101508.84;4962378;28;45332;-58
2022/10/07 15:43:52;;;;;;;;;1.00;1.00;;;;;25.90;34.25;101502.69;4962024;28;45276;-57
2022/10/07 15:46:17;;;;;;;;;2.50;2.50;;;;;25.78;34.20;101504.38;4962140;28;45321;-58
2022/10/07 15:48:43;;;;;;;;;4.25;0.75;;;;;25.64;33.75;101505.28;4961936;28;45405;-57
2022/10/07 15:51:08;;;;;;;;;2.75;1.00;;;;;25.53;34.04;101508.69;4962499;28;45315;-55
2022/10/07 15:53:33;;;;;;;;;0.50;0.00;;;;;25.40;33.89;101503.25;4962040;28;45457;-57
2022/10/07 15:55:59;;;;;;;;;1.00;1.00;;;;;25.29;33.78;101508.44;4962089;28;46177;-58
2022/10/07 15:58:29;;;;;;;;;2.25;2.00;;;;;25.17;34.20;101501.16;4961655;28;45334;-56
2022/10/07 16:00:59;;;;;;;;;1.00;1.00;;;;;25.02;34.08;101495.78;4972205;28;45356;-56
2022/10/07 16:03:25;;;;;;;;;2.00;2.00;;;;;24.91;34.32;101499.16;4962470;28;45446;-54
2022/10/07 16:06:00;;;;;;;;;1.50;1.50;;;;;24.79;34.06;101502.59;4961415;28;46080;-57
2022/10/07 16:08:25;;;;;;;;;3.25;1.75;;;;;24.68;34.00;101505.97;4961657;28;45302;-57
2022/10/07 16:10:51;;;;;;;;;2.25;1.00;;;;;24.49;33.73;101479.34;4961887;28;45272;-57
2022/10/07 16:13:16;;;;;;;;;3.75;2.00;;;;;24.48;34.24;101507.16;4961564;28;45207;-56
2022/10/07 16:15:41;;;;;;;;;4.00;3.00;;;;;24.38;34.04;101500.59;4961554;28;46268;-56
2022/10/07 16:18:07;;;;;;;;;1.00;1.00;;;;;24.27;34.25;101512.00;4961184;28;45483;-58
2022/10/07 16:20:38;;;;;;;;;2.75;1.00;;;;;24.13;34.14;101502.09;4962007;28;45507;-57
2022/10/07 16:23:03;;;;;;;;;2.75;0.50;;;;;24.04;33.81;101508.88;4961601;28;45990;-57
2022/10/07 16:25:28;;;;;;;;;3.25;1.00;;;;;23.93;34.15;101506.81;4961355;28;45291;-57
2022/10/07 16:30:47;;;;;;;;;1.25;1.00;;;;;23.74;34.43;101504.31;4950541;28;45300;-57
2022/10/07 16:33:13;;;;;;;;;5.00;2.25;;;;;23.64;34.45;101509.34;4961184;28;45275;-57
2022/10/07 16:35:38;;;;;;;;;0.00;0.00;;;;;23.55;34.65;101501.81;4961207;28;45409;-57
2022/10/07 16:38:04;;;;;;;;;2.00;1.25;;;;;23.49;34.50;101496.81;4960665;28;45374;-57
2022/10/07 16:40:29;;;;;;;;;1.25;0.00;;;;;23.42;34.56;101499.00;4960993;28;45357;-57
2022/10/07 16:42:58;;;;;;;;;1.50;1.50;;;;;23.33;34.58;101499.47;4961195;28;45400;-56
2022/10/07 16:45:23;;;;;;;;;0.00;0.00;;;;;23.26;34.62;101504.34;4960978;28;45490;-54
2022/10/07 16:47:48;;;;;;;;;2.00;2.00;;;;;23.21;34.77;101511.78;4961220;28;45255;-57
2022/10/07 16:50:14;;;;;;;;;5.00;5.00;;;;;23.16;34.51;101509.34;4961115;28;45208;-57
2022/10/07 16:52:40;;;;;;;;;2.00;1.00;;;;;23.11;34.63;101511.38;4961156;28;45497;-56
2022/10/07 16:55:06;;;;;;;;;2.00;2.00;;;;;23.04;34.71;101505.50;4960958;28;46040;-56
2022/10/07 16:57:31;;;;;;;;;2.00;1.25;;;;;23.03;34.92;101513.59;4976121;28;45488;-56
2022/10/07 16:59:58;;;;;;;;;2.50;2.50;;;;;22.98;34.90;101510.31;4961779;28;45235;-57